MSC Mirella — 3FTW9 — position and weather

sailwx.info

Track history (hours):
 
Tides and Currents Weather Stations Pressure Air Temp Water Temp Dewpoint Dewpoint Depression Visibility Wind Speed Wind Dir Waves Ship Positions

MSC Mirella

Last reported at 2017-Nov-14 08:40 UTC. Time now 2017-Nov-22 13:09 UTC.
Position N 46°18' E 030°45'.
Warning: this ship's position is 8 days out of date.

Length 177 m; draft 9.6 m.

Type: Ship (hazmat cat A). MMSI: 357814000.

Date/timePositionNaut miles runAvg speedWind from/ knotsBaromVisibWave heightAir tempDewpointWater temp
2017-Nov-14 08:40N 46°18' E 030°45'2 9.5
2017-Nov-14 08:30N 46°19' E 030°43'11 0.4
2017-Nov-13 01:53N 46°29' E 030°46'0 0.0
2017-Nov-13 01:29N 46°29' E 030°46'0 0.0
2017-Nov-13 00:59N 46°29' E 030°46'0 0.0
2017-Nov-13 00:29N 46°29' E 030°46'0 0.0
2017-Nov-12 23:50N 46°29' E 030°46'0 0.0
2017-Nov-12 23:29N 46°29' E 030°46'0 0.0
2017-Nov-12 22:56N 46°29' E 030°46'0 0.0
2017-Nov-12 22:29N 46°29' E 030°46'0 0.0
2017-Nov-12 21:59N 46°29' E 030°46'0 0.0
2017-Nov-12 21:14N 46°29' E 030°46'0 0.0
2017-Nov-12 20:59N 46°29' E 030°46'0 0.0
2017-Nov-12 20:26N 46°29' E 030°46'0 0.0
2017-Nov-12 19:59N 46°29' E 030°46'0 0.0
2017-Nov-12 19:26N 46°29' E 030°46'0 0.0
2017-Nov-12 18:56N 46°29' E 030°46'0 0.0
2017-Nov-12 18:29N 46°29' E 030°46'0 0.6
2017-Nov-12 18:00N 46°30' E 030°46'2 3.4
2017-Nov-12 17:30N 46°29' E 030°48'3 6.9
2017-Nov-12 17:00N 46°27' E 030°51'611.7
2017-Nov-12 16:30N 46°21' E 030°53'1913.1
2017-Nov-12 15:02N 46°07' E 031°12'114.3
2017-Nov-12 14:58N 46°06' E 031°13'1814.5
2017-Nov-12 13:44N 45°48' E 031°08'11714.7
2017-Nov-12 05:44N 44°10' E 029°37'312.9
2017-Nov-12 05:30N 44°08' E 029°35'612.6
2017-Nov-12 05:00N 44°03' E 029°30'612.9
2017-Nov-12 04:30N 43°57' E 029°25'613.0
2017-Nov-12 04:00N 43°52' E 029°20'612.8
2017-Nov-12 03:31N 43°46' E 029°16'713.0
2017-Nov-12 03:00N 43°41' E 029°11'613.0
2017-Nov-12 02:30N 43°35' E 029°06'612.8
2017-Nov-12 02:00N 43°30' E 029°01'1512.8
2017-Nov-12 00:51N 43°18' E 028°50'  
2017-Nov-09 00:43N 37°40' E 024°31'4516.3
2017-Nov-08 21:57N 37°06' E 023°54'37213.6
2017-Nov-07 18:30N 37°45' E 016°08'713.8
2017-Nov-07 18:00N 37°47' E 016°00'713.8
2017-Nov-07 17:30N 37°48' E 015°52'713.4
2017-Nov-07 17:00N 37°50' E 015°44'1012.8
2017-Nov-07 16:15N 37°57' E 015°34'312.5
2017-Nov-07 16:00N 37°60' E 015°34'812.8
2017-Nov-07 15:23N 38°08' E 015°35'513.1
2017-Nov-07 15:00N 38°13' E 015°36'6 9.5
2017-Nov-07 14:24N 38°17' E 015°41'2 6.0
2017-Nov-07 14:00N 38°19' E 015°42'8 8.3
2017-Nov-07 13:02N 38°25' E 015°50'3 7.9
2017-Nov-07 12:35N 38°27' E 015°53'1 4.8
2017-Nov-07 12:25N 38°27' E 015°54'1 2.2
2017-Nov-07 12:00N 38°28' E 015°55'0 0.7
2017-Nov-07 11:24N 38°27' E 015°54'0 0.0
2017-Nov-07 11:00N 38°28' E 015°54'0 0.0
2017-Nov-07 10:24N 38°27' E 015°54'0 0.0
2017-Nov-07 10:00N 38°27' E 015°54'0 0.0
2017-Nov-07 09:30N 38°27' E 015°54'0 0.0
2017-Nov-07 09:00N 38°27' E 015°54'0 0.0
2017-Nov-07 08:24N 38°27' E 015°54'0 0.0
2017-Nov-07 08:00N 38°28' E 015°54'0 0.0
2017-Nov-07 07:30N 38°27' E 015°54'0 0.0
2017-Nov-07 07:00N 38°27' E 015°54'0 0.0
2017-Nov-07 04:48N 38°28' E 015°54'0 0.0
2017-Nov-07 04:24N 38°27' E 015°54'0 0.0
2017-Nov-07 03:54N 38°27' E 015°54'0 0.0
2017-Nov-07 03:18N 38°27' E 015°54'0 0.0
2017-Nov-07 02:12N 38°27' E 015°54'0 0.0
2017-Nov-07 01:18N 38°27' E 015°54'0 0.0
2017-Nov-07 00:48N 38°27' E 015°54'0 0.0
2017-Nov-07 00:30N 38°27' E 015°54'0 0.0
2017-Nov-06 22:54N 38°27' E 015°54'0 0.0
2017-Nov-06 22:30N 38°27' E 015°54'0 0.0
2017-Nov-06 21:54N 38°27' E 015°54'0 0.0
2017-Nov-06 20:48N 38°27' E 015°54'0 0.0
2017-Nov-06 20:30N 38°28' E 015°54'0 0.0
2017-Nov-06 02:29N 38°27' E 015°54'0 0.0
2017-Nov-06 01:59N 38°27' E 015°54'0 0.0
2017-Nov-06 01:29N 38°27' E 015°54'0 0.0
2017-Nov-06 00:59N 38°27' E 015°54'0 0.0
2017-Nov-06 00:29N 38°27' E 015°54'0 0.0
2017-Nov-05 23:59N 38°27' E 015°54'0 0.0
2017-Nov-05 23:29N 38°28' E 015°54'0 0.0
2017-Nov-05 22:59N 38°27' E 015°54'0 0.0
2017-Nov-05 22:29N 38°27' E 015°54'0 0.0
2017-Nov-05 21:59N 38°27' E 015°54'0 0.0
2017-Nov-05 21:29N 38°27' E 015°54'0 0.0
2017-Nov-05 20:59N 38°27' E 015°54'0 0.0
2017-Nov-05 19:59N 38°27' E 015°54'0 0.0
2017-Nov-05 18:26N 38°27' E 015°54'4 4.7
2017-Nov-05 17:31N 38°26' E 015°49'0 8.5
2017-Nov-05 17:30N 38°26' E 015°49'510.8
2017-Nov-05 17:00N 38°22' E 015°46'713.5
2017-Nov-05 16:29N 38°16' E 015°41'714.2
2017-Nov-05 16:01N 38°10' E 015°37'5 9.6
2017-Nov-05 15:31N 38°05' E 015°35'4 8.9
2017-Nov-05 15:01N 38°01' E 015°35'612.3
2017-Nov-05 14:30N 37°55' E 015°39'714.3
2017-Nov-05 14:00N 37°50' E 015°45'  
Track history (hours):
 
Tides and Currents Weather Stations Pressure Air Temp Water Temp Dewpoint Dewpoint Depression Visibility Wind Speed Wind Dir Waves Ship Positions

MSC Mirella

Last reported at 2017-Nov-14 08:40 UTC. Time now 2017-Nov-22 13:09 UTC.
Position N 46°18' E 030°45'.
Warning: this ship's position is 8 days out of date.

Length 177 m; draft 9.6 m.

Type: Ship (hazmat cat A). MMSI: 357814000.

Date/timePositionNaut miles runAvg speedWind from/ knotsBaromVisibWave heightAir tempDewpointWater temp
2017-Nov-14 08:40N 46°18' E 030°45'2 9.5
2017-Nov-14 08:30N 46°19' E 030°43'11 0.4
2017-Nov-13 01:53N 46°29' E 030°46'0 0.0
2017-Nov-13 01:29N 46°29' E 030°46'0 0.0
2017-Nov-13 00:59N 46°29' E 030°46'0 0.0
2017-Nov-13 00:29N 46°29' E 030°46'0 0.0
2017-Nov-12 23:50N 46°29' E 030°46'0 0.0
2017-Nov-12 23:29N 46°29' E 030°46'0 0.0
2017-Nov-12 22:56N 46°29' E 030°46'0 0.0
2017-Nov-12 22:29N 46°29' E 030°46'0 0.0
2017-Nov-12 21:59N 46°29' E 030°46'0 0.0
2017-Nov-12 21:14N 46°29' E 030°46'0 0.0
2017-Nov-12 20:59N 46°29' E 030°46'0 0.0
2017-Nov-12 20:26N 46°29' E 030°46'0 0.0
2017-Nov-12 19:59N 46°29' E 030°46'0 0.0
2017-Nov-12 19:26N 46°29' E 030°46'0 0.0
2017-Nov-12 18:56N 46°29' E 030°46'0 0.0
2017-Nov-12 18:29N 46°29' E 030°46'0 0.6
2017-Nov-12 18:00N 46°30' E 030°46'2 3.4
2017-Nov-12 17:30N 46°29' E 030°48'3 6.9
2017-Nov-12 17:00N 46°27' E 030°51'611.7
2017-Nov-12 16:30N 46°21' E 030°53'1913.1
2017-Nov-12 15:02N 46°07' E 031°12'114.3
2017-Nov-12 14:58N 46°06' E 031°13'1814.5
2017-Nov-12 13:44N 45°48' E 031°08'11714.7
2017-Nov-12 05:44N 44°10' E 029°37'312.9
2017-Nov-12 05:30N 44°08' E 029°35'612.6
2017-Nov-12 05:00N 44°03' E 029°30'612.9
2017-Nov-12 04:30N 43°57' E 029°25'613.0
2017-Nov-12 04:00N 43°52' E 029°20'612.8
2017-Nov-12 03:31N 43°46' E 029°16'713.0
2017-Nov-12 03:00N 43°41' E 029°11'613.0
2017-Nov-12 02:30N 43°35' E 029°06'612.8
2017-Nov-12 02:00N 43°30' E 029°01'1512.8
2017-Nov-12 00:51N 43°18' E 028°50'  
2017-Nov-09 00:43N 37°40' E 024°31'4516.3
2017-Nov-08 21:57N 37°06' E 023°54'37213.6
2017-Nov-07 18:30N 37°45' E 016°08'713.8
2017-Nov-07 18:00N 37°47' E 016°00'713.8
2017-Nov-07 17:30N 37°48' E 015°52'713.4
2017-Nov-07 17:00N 37°50' E 015°44'1012.8
2017-Nov-07 16:15N 37°57' E 015°34'312.5
2017-Nov-07 16:00N 37°60' E 015°34'812.8
2017-Nov-07 15:23N 38°08' E 015°35'513.1
2017-Nov-07 15:00N 38°13' E 015°36'6 9.5
2017-Nov-07 14:24N 38°17' E 015°41'2 6.0
2017-Nov-07 14:00N 38°19' E 015°42'8 8.3
2017-Nov-07 13:02N 38°25' E 015°50'3 7.9
2017-Nov-07 12:35N 38°27' E 015°53'1 4.8
2017-Nov-07 12:25N 38°27' E 015°54'1 2.2
2017-Nov-07 12:00N 38°28' E 015°55'0 0.7
2017-Nov-07 11:24N 38°27' E 015°54'0 0.0
2017-Nov-07 11:00N 38°28' E 015°54'0 0.0
2017-Nov-07 10:24N 38°27' E 015°54'0 0.0
2017-Nov-07 10:00N 38°27' E 015°54'0 0.0
2017-Nov-07 09:30N 38°27' E 015°54'0 0.0
2017-Nov-07 09:00N 38°27' E 015°54'0 0.0
2017-Nov-07 08:24N 38°27' E 015°54'0 0.0
2017-Nov-07 08:00N 38°28' E 015°54'0 0.0
2017-Nov-07 07:30N 38°27' E 015°54'0 0.0
2017-Nov-07 07:00N 38°27' E 015°54'0 0.0
2017-Nov-07 04:48N 38°28' E 015°54'0 0.0
2017-Nov-07 04:24N 38°27' E 015°54'0 0.0
2017-Nov-07 03:54N 38°27' E 015°54'0 0.0
2017-Nov-07 03:18N 38°27' E 015°54'0 0.0
2017-Nov-07 02:12N 38°27' E 015°54'0 0.0
2017-Nov-07 01:18N 38°27' E 015°54'0 0.0
2017-Nov-07 00:48N 38°27' E 015°54'0 0.0
2017-Nov-07 00:30N 38°27' E 015°54'0 0.0
2017-Nov-06 22:54N 38°27' E 015°54'0 0.0
2017-Nov-06 22:30N 38°27' E 015°54'0 0.0
2017-Nov-06 21:54N 38°27' E 015°54'0 0.0
2017-Nov-06 20:48N 38°27' E 015°54'0 0.0
2017-Nov-06 20:30N 38°28' E 015°54'0 0.0
2017-Nov-06 02:29N 38°27' E 015°54'0 0.0
2017-Nov-06 01:59N 38°27' E 015°54'0 0.0
2017-Nov-06 01:29N 38°27' E 015°54'0 0.0
2017-Nov-06 00:59N 38°27' E 015°54'0 0.0
2017-Nov-06 00:29N 38°27' E 015°54'0 0.0
2017-Nov-05 23:59N 38°27' E 015°54'0 0.0
2017-Nov-05 23:29N 38°28' E 015°54'0 0.0
2017-Nov-05 22:59N 38°27' E 015°54'0 0.0
2017-Nov-05 22:29N 38°27' E 015°54'0 0.0
2017-Nov-05 21:59N 38°27' E 015°54'0 0.0
2017-Nov-05 21:29N 38°27' E 015°54'0 0.0
2017-Nov-05 20:59N 38°27' E 015°54'0 0.0
2017-Nov-05 19:59N 38°27' E 015°54'0 0.0
2017-Nov-05 18:26N 38°27' E 015°54'4 4.7
2017-Nov-05 17:31N 38°26' E 015°49'0 8.5
2017-Nov-05 17:30N 38°26' E 015°49'510.8
2017-Nov-05 17:00N 38°22' E 015°46'713.5
2017-Nov-05 16:29N 38°16' E 015°41'714.2
2017-Nov-05 16:01N 38°10' E 015°37'5 9.6
2017-Nov-05 15:31N 38°05' E 015°35'4 8.9
2017-Nov-05 15:01N 38°01' E 015°35'612.3
2017-Nov-05 14:30N 37°55' E 015°39'714.3
2017-Nov-05 14:00N 37°50' E 015°45'  

Dump ship's entire track history